Nagasaki Airport
RJFU : now visible

Airfield :











YOU CAN JOIN US ON...

 
LOGIN :

Register | Disclaimer

   EN    FR    IT 

 









Legend :    VFR   Marginal VFR   IFR   Intensive IFR   Very Intensive IFR
Visi :
Ceiling :
>= 8 km
>= 3000ft
5 to 8 km
1000 to 3000 ft
1500m to 5 km
500 to 1000 ft
800 to 1500m
200 to 500 ft
< 800m
< 200 ft
Symbols :   Thunderstorms  Fog  Heavy snow  Heavy precipitations  Wind > 20 kt






- Airport Elevation : 15 ft
- IATA code : NGS


RJFU - Nagasaki

CURRENT METAR :
  • 250500Z 27009KT 210V310 9999 FEW030 BKN060 BKN/// 25/18 Q1011

EXPIRED METARs :
  • 250400Z 27005KT 210V320 9999 FEW030 BKN/// 26/19 Q1010
  • 250300Z 28005KT 240V320 9999 FEW030 SCT050 BKN/// 25/19 Q1011

TAF TAF RJFU
Valid from the 25 at 00:00 until the 26 at 06:00 UTC


242313Z 2500/2606 28006KT 9999 FEW030 SCT040
BECMG 2510/2512 18003KT
TEMPO 2515/2600 FEW003 BKN008 BKN015
BECMG 2603/2606 26005KT
RJJJ FIR / Asia



MET'MAP, your aeronautical weather chart ! - Copyright ORBIFLY December 2007 - Disclaimer

ORBIFLY MET'MAP TEAM :

Programming & Development : Alexandra Zaïnal
Concept & original design : Baudouin d'Aumeries
Assistance for programming : Marc-Olivier Méhu
Technical & hardware support : Manuel Goepfert

Contact : metmap@orbifly.com




SOURCES & CREDITS :

   NOAA       Earth
Advisory